Time;durP1;ratioP1;P1;durP2;ratioP2;P2;SDS_P1;SDS_P2;PMS_P1;PMS_P2;Temp;Humidity;BMP_temperature;BMP_pressure;BME280_temperature;BME280_humidity;BME280_pressure;Samples;Min_cycle;Max_cycle;Signal;HPM_P1;HPM_P2
2021/01/08 00:00:44;;;;;;;;;;;;;;;;;;2079274;28;7307;-65
2021/01/08 00:01:47;;;;;;;;;;;;;;;;;;2069944;28;7013;-64
2021/01/08 00:02:49;;;;;;;;;;;;;;;;;;2077822;28;7017;-66
2021/01/08 00:03:51;;;;;;;;;;;;;;;;;;2079116;28;7005;-65
2021/01/08 00:04:53;;;;;;;;;;;;;;;;;;2078536;28;7120;-64
2021/01/08 00:05:55;;;;;;;;;;;;;;;;;;2078728;28;7096;-67
2021/01/08 00:06:56;;;;;;;;;;;;;;;;;;2078566;28;7014;-66
2021/01/08 00:07:59;;;;;;;;;;;;;;;;;;2078526;28;7145;-64
2021/01/08 00:09:01;;;;;;;;;;;;;;;;;;2078241;28;7092;-65
2021/01/08 00:10:05;;;;;;;;;;;;;;;;;;2078388;28;7092;-65
2021/01/08 00:11:07;;;;;;;;;;;;;;;;;;2085892;28;8054;-66
2021/01/08 00:12:09;;;;;;;;;;;;;;;;;;2084954;28;8160;-64
2021/01/08 00:13:11;;;;;;;;;;;;;;;;;;2079322;28;7041;-65
2021/01/08 00:14:13;;;;;;;;;;;;;;;;;;2069891;28;7096;-66
2021/01/08 00:15:14;;;;;;;;;;;;;;;;;;2070749;28;7355;-62
2021/01/08 00:16:16;;;;;;;;;;;;;;;;;;2069641;28;8053;-66
2021/01/08 00:17:19;;;;;;;;;;;;;;;;;;2069489;28;8043;-67
2021/01/08 00:18:21;;;;;;;;;;;;;;;;;;2076357;28;7111;-67
2021/01/08 00:19:23;;;;;;;;;;;;;;;;;;2078288;28;7010;-66
2021/01/08 00:20:25;;;;;;;;;;;;;;;;;;2078496;28;7379;-66
2021/01/08 00:21:37;;;;;;;;;;;;;;;;;;2074579;28;7013;-68
2021/01/08 00:22:39;;;;;;;;;;;;;;;;;;2070550;28;7009;-65
2021/01/08 00:23:40;;;;;;;;;;;;;;;;;;2070526;28;7324;-65
2021/01/08 00:24:43;;;;;;;;;;;;;;;;;;2070662;28;7084;-68
2021/01/08 00:25:50;;;;;;;;;;;;;;;;;;2076489;28;7316;-63
2021/01/08 00:26:54;;;;;;;;;;;;;;;;;;2078481;28;7092;-66
2021/01/08 00:27:57;;;;;;;;;;;;;;;;;;2078761;28;7029;-66
2021/01/08 00:28:59;;;;;;;;;;;;;;;;;;2078185;28;7092;-65
2021/01/08 00:30:00;;;;;;;;;;;;;;;;;;2078690;28;7046;-65
2021/01/08 00:31:02;;;;;;;;;;;;;;;;;;2078254;28;7953;-66
2021/01/08 00:32:05;;;;;;;;;;;;;;;;;;2078887;28;7009;-65
2021/01/08 00:33:07;;;;;;;;;;;;;;;;;;2078618;28;7046;-66
2021/01/08 00:34:13;;;;;;;;;;;;;;;;;;2063075;28;7013;-66
2021/01/08 00:35:15;;;;;;;;;;;;;;;;;;2062556;28;7253;-66
2021/01/08 00:36:17;;;;;;;;;;;;;;;;;;2062982;28;7113;-65
2021/01/08 00:37:22;;;;;;;;;;;;;;;;;;2062530;28;7013;-64
2021/01/08 00:38:24;;;;;;;;;;;;;;;;;;2062538;28;7134;-64
2021/01/08 00:39:26;;;;;;;;;;;;;;;;;;2062472;28;7042;-64
2021/01/08 00:40:28;;;;;;;;;;;;;;;;;;2063160;28;7128;-65
2021/01/08 00:41:36;;;;;;;;;;;;;;;;;;2053239;28;7097;-65
2021/01/08 00:42:38;;;;;;;;;;;;;;;;;;2054686;28;7101;-66
2021/01/08 00:43:40;;;;;;;;;;;;;;;;;;2054600;28;7009;-65
2021/01/08 00:44:42;;;;;;;;;;;;;;;;;;2058223;28;7037;-66
2021/01/08 00:45:45;;;;;;;;;;;;;;;;;;2062805;28;7041;-67
2021/01/08 00:46:49;;;;;;;;;;;;;;;;;;2062776;28;7009;-64
2021/01/08 00:47:51;;;;;;;;;;;;;;;;;;2062552;28;7010;-65
2021/01/08 00:48:53;;;;;;;;;;;;;;;;;;2062844;28;7013;-64
2021/01/08 00:49:55;;;;;;;;;;;;;;;;;;2062004;28;7128;-66
2021/01/08 00:51:00;;;;;;;;;;;;;;;;;;2062438;28;7013;-65
2021/01/08 00:52:02;;;;;;;;;;;;;;;;;;2062637;28;7021;-65
2021/01/08 00:53:04;;;;;;;;;;;;;;;;;;2063162;28;7042;-65
2021/01/08 00:54:07;;;;;;;;;;;;;;;;;;2062723;28;7046;-65
2021/01/08 00:55:09;;;;;;;;;;;;;;;;;;2062375;28;7002;-65
2021/01/08 00:56:18;;;;;;;;;;;;;;;;;;2062132;28;8039;-64
2021/01/08 00:57:20;;;;;;;;;;;;;;;;;;2062858;28;7013;-65
2021/01/08 00:58:22;;;;;;;;;;;;;;;;;;2062973;28;7113;-66
2021/01/08 00:59:24;;;;;;;;;;;;;;;;;;2053440;28;7037;-66
2021/01/08 01:00:26;;;;;;;;;;;;;;;;;;2053102;28;7092;-66
2021/01/08 01:01:28;;;;;;;;;;;;;;;;;;2054100;28;7009;-64
2021/01/08 01:02:32;;;;;;;;;;;;;;;;;;2053366;28;7133;-64
2021/01/08 01:03:34;;;;;;;;;;;;;;;;;;2054340;28;8039;-64
2021/01/08 01:04:36;;;;;;;;;;;;;;;;;;2054430;28;7009;-66
2021/01/08 01:05:41;;;;;;;;;;;;;;;;;;2054447;28;7002;-66
2021/01/08 01:06:42;;;;;;;;;;;;;;;;;;2058839;28;7088;-65
2021/01/08 01:07:44;;;;;;;;;;;;;;;;;;2062006;28;8102;-66
2021/01/08 01:08:46;;;;;;;;;;;;;;;;;;2061862;28;7005;-65
2021/01/08 01:09:48;;;;;;;;;;;;;;;;;;2062282;28;9007;-64
2021/01/08 01:10:50;;;;;;;;;;;;;;;;;;2063495;28;7065;-63
2021/01/08 01:11:52;;;;;;;;;;;;;;;;;;2057301;28;7134;-65
2021/01/08 01:12:54;;;;;;;;;;;;;;;;;;2056046;28;7097;-66
2021/01/08 01:13:57;;;;;;;;;;;;;;;;;;2054850;28;7077;-65
2021/01/08 01:14:59;;;;;;;;;;;;;;;;;;2056013;28;7105;-64
2021/01/08 01:16:04;;;;;;;;;;;;;;;;;;2056354;28;7108;-64
2021/01/08 01:17:06;;;;;;;;;;;;;;;;;;2056221;28;7009;-65
2021/01/08 01:18:08;;;;;;;;;;;;;;;;;;2054406;28;7010;-65
2021/01/08 01:19:10;;;;;;;;;;;;;;;;;;2056786;28;7074;-65
2021/01/08 01:20:12;;;;;;;;;;;;;;;;;;2063879;28;7100;-66
2021/01/08 01:21:15;;;;;;;;;;;;;;;;;;2060626;28;7135;-65
2021/01/08 01:22:17;;;;;;;;;;;;;;;;;;2056121;28;8039;-64
2021/01/08 01:23:19;;;;;;;;;;;;;;;;;;2055836;28;7313;-63
2021/01/08 01:24:21;;;;;;;;;;;;;;;;;;2056845;28;8104;-65
2021/01/08 01:25:22;;;;;;;;;;;;;;;;;;2055688;28;7090;-64
2021/01/08 01:26:24;;;;;;;;;;;;;;;;;;2055307;28;7301;-65
2021/01/08 01:27:26;;;;;;;;;;;;;;;;;;2054311;28;7093;-66
2021/01/08 01:28:28;;;;;;;;;;;;;;;;;;2055700;28;7010;-66
2021/01/08 01:29:30;;;;;;;;;;;;;;;;;;2055422;28;7493;-66
2021/01/08 01:30:32;;;;;;;;;;;;;;;;;;2055835;28;7113;-66
2021/01/08 01:31:34;;;;;;;;;;;;;;;;;;2055708;28;7154;-64
2021/01/08 01:32:36;;;;;;;;;;;;;;;;;;2055762;28;7246;-66
2021/01/08 01:33:38;;;;;;;;;;;;;;;;;;2064131;28;7005;-67
2021/01/08 01:34:41;;;;;;;;;;;;;;;;;;2071725;28;8183;-63
2021/01/08 01:35:43;;;;;;;;;;;;;;;;;;2072046;28;7225;-65
2021/01/08 01:36:46;;;;;;;;;;;;;;;;;;2072536;28;7036;-67
2021/01/08 01:37:48;;;;;;;;;;;;;;;;;;2072102;28;8118;-65
2021/01/08 01:38:49;;;;;;;;;;;;;;;;;;2072455;28;7140;-67
2021/01/08 01:39:51;;;;;;;;;;;;;;;;;;2072169;28;7092;-67
2021/01/08 01:40:53;;;;;;;;;;;;;;;;;;2071729;28;7009;-64
2021/01/08 01:41:55;;;;;;;;;;;;;;;;;;2071536;28;7089;-64
2021/01/08 01:42:58;;;;;;;;;;;;;;;;;;2072335;28;7092;-63
2021/01/08 01:44:00;;;;;;;;;;;;;;;;;;2071335;28;7089;-65
2021/01/08 01:45:02;;;;;;;;;;;;;;;;;;2072128;28;7038;-63
2021/01/08 01:46:05;;;;;;;;;;;;;;;;;;2071769;28;7010;-64
2021/01/08 01:47:07;;;;;;;;;;;;;;;;;;2072148;28;8350;-67
2021/01/08 01:48:10;;;;;;;;;;;;;;;;;;2072336;28;7089;-64
2021/01/08 01:49:12;;;;;;;;;;;;;;;;;;2080633;28;7105;-65
2021/01/08 01:50:14;;;;;;;;;;;;;;;;;;2080539;28;8094;-64
2021/01/08 01:51:18;;;;;;;;;;;;;;;;;;2080291;28;7042;-65
2021/01/08 01:52:20;;;;;;;;;;;;;;;;;;2079929;28;7104;-65
2021/01/08 01:53:23;;;;;;;;;;;;;;;;;;2080404;28;7745;-64
2021/01/08 01:54:25;;;;;;;;;;;;;;;;;;2080427;28;7053;-67
2021/01/08 01:55:28;;;;;;;;;;;;;;;;;;2079979;28;7140;-66
2021/01/08 01:56:29;;;;;;;;;;;;;;;;;;2077749;28;7093;-66
2021/01/08 01:57:33;;;;;;;;;;;;;;;;;;2071426;28;7512;-65
2021/01/08 01:58:35;;;;;;;;;;;;;;;;;;2071608;28;7017;-66
2021/01/08 01:59:37;;;;;;;;;;;;;;;;;;2071711;28;7017;-66
2021/01/08 02:00:39;;;;;;;;;;;;;;;;;;2071639;28;7013;-65
2021/01/08 02:01:41;;;;;;;;;;;;;;;;;;2071685;28;7352;-64
2021/01/08 02:02:46;;;;;;;;;;;;;;;;;;2071543;28;7010;-67
2021/01/08 02:03:55;;;;;;;;;;;;;;;;;;2071702;28;7006;-65
2021/01/08 02:05:01;;;;;;;;;;;;;;;;;;2071980;28;7092;-66
2021/01/08 02:06:08;;;;;;;;;;;;;;;;;;2071830;28;7088;-66
2021/01/08 02:07:10;;;;;;;;;;;;;;;;;;2071524;28;8059;-66
2021/01/08 02:08:16;;;;;;;;;;;;;;;;;;2071525;28;7116;-66
2021/01/08 02:09:19;;;;;;;;;;;;;;;;;;2071891;28;7101;-66
2021/01/08 02:10:23;;;;;;;;;;;;;;;;;;2071783;28;7324;-64
2021/01/08 02:11:27;;;;;;;;;;;;;;;;;;2077178;28;7018;-64
2021/01/08 02:12:30;;;;;;;;;;;;;;;;;;2072045;28;7092;-66
2021/01/08 02:13:38;;;;;;;;;;;;;;;;;;2070830;28;8032;-65
2021/01/08 02:14:42;;;;;;;;;;;;;;;;;;2071877;28;7092;-66
2021/01/08 02:15:45;;;;;;;;;;;;;;;;;;2071060;28;7430;-67
2021/01/08 02:16:50;;;;;;;;;;;;;;;;;;2072027;28;7495;-65
2021/01/08 02:17:52;;;;;;;;;;;;;;;;;;2072215;28;7107;-67
2021/01/08 02:18:54;;;;;;;;;;;;;;;;;;2071712;28;8008;-66
2021/01/08 02:20:02;;;;;;;;;;;;;;;;;;2071282;28;7005;-66
2021/01/08 02:21:07;;;;;;;;;;;;;;;;;;2073501;28;7017;-64
2021/01/08 02:22:31;;;;;;;;;;;;;;;;;;2080192;28;7430;-64
2021/01/08 02:23:41;;;;;;;;;;;;;;;;;;2071947;28;8051;-67
2021/01/08 02:24:59;;;;;;;;;;;;;;;;;;2071548;28;7109;-65
2021/01/08 02:26:01;;;;;;;;;;;;;;;;;;2071570;28;9070;-66
2021/01/08 02:27:04;;;;;;;;;;;;;;;;;;2077744;28;7033;-64
2021/01/08 02:28:24;;;;;;;;;;;;;;;;;;2079812;28;7009;-65
2021/01/08 02:29:26;;;;;;;;;;;;;;;;;;2079409;28;7025;-65
2021/01/08 02:30:28;;;;;;;;;;;;;;;;;;2079600;28;7009;-66
2021/01/08 02:31:30;;;;;;;;;;;;;;;;;;2079380;28;7013;-67
2021/01/08 02:32:33;;;;;;;;;;;;;;;;;;2079186;28;7006;-65
2021/01/08 02:33:35;;;;;;;;;;;;;;;;;;2079336;28;7109;-65
2021/01/08 02:34:38;;;;;;;;;;;;;;;;;;2080068;28;7013;-65
2021/01/08 02:35:41;;;;;;;;;;;;;;;;;;2079993;28;8063;-64
2021/01/08 02:36:44;;;;;;;;;;;;;;;;;;2079660;28;7005;-64
2021/01/08 02:37:46;;;;;;;;;;;;;;;;;;2079448;28;7096;-66
2021/01/08 02:38:51;;;;;;;;;;;;;;;;;;2078975;28;7010;-64
2021/01/08 02:39:53;;;;;;;;;;;;;;;;;;2079688;28;7029;-65
2021/01/08 02:40:57;;;;;;;;;;;;;;;;;;2079213;28;7092;-65
2021/01/08 02:42:00;;;;;;;;;;;;;;;;;;2079119;28;7009;-64
2021/01/08 02:43:04;;;;;;;;;;;;;;;;;;2079324;28;7005;-65
2021/01/08 02:44:06;;;;;;;;;;;;;;;;;;2079235;28;7109;-66
2021/01/08 02:45:08;;;;;;;;;;;;;;;;;;2078907;28;7009;-67
2021/01/08 02:46:11;;;;;;;;;;;;;;;;;;2079082;28;7006;-65
2021/01/08 02:47:18;;;;;;;;;;;;;;;;;;2079218;28;7046;-66
2021/01/08 02:48:21;;;;;;;;;;;;;;;;;;2070760;28;7049;-64
2021/01/08 02:49:23;;;;;;;;;;;;;;;;;;2071686;28;8044;-66
2021/01/08 02:50:25;;;;;;;;;;;;;;;;;;2070216;28;7009;-65
2021/01/08 02:51:27;;;;;;;;;;;;;;;;;;2070342;28;7806;-66
2021/01/08 02:52:31;;;;;;;;;;;;;;;;;;2071634;28;7088;-64
2021/01/08 02:53:37;;;;;;;;;;;;;;;;;;2071853;28;7029;-66
2021/01/08 02:54:39;;;;;;;;;;;;;;;;;;2070958;28;7361;-65
2021/01/08 02:56:02;;;;;;;;;;;;;;;;;;2071424;28;7112;-65
2021/01/08 02:57:05;;;;;;;;;;;;;;;;;;2070713;28;7093;-65
2021/01/08 02:58:07;;;;;;;;;;;;;;;;;;2071820;28;7013;-63
2021/01/08 02:59:10;;;;;;;;;;;;;;;;;;2071469;28;7013;-66
2021/01/08 03:00:12;;;;;;;;;;;;;;;;;;2076637;28;7088;-64
2021/01/08 03:01:15;;;;;;;;;;;;;;;;;;2079135;28;7029;-64
2021/01/08 03:02:17;;;;;;;;;;;;;;;;;;2073151;28;7041;-65
2021/01/08 03:03:20;;;;;;;;;;;;;;;;;;2071063;28;7013;-64
2021/01/08 03:04:22;;;;;;;;;;;;;;;;;;2071048;28;7112;-66
2021/01/08 03:05:27;;;;;;;;;;;;;;;;;;2071216;28;7010;-67
2021/01/08 03:06:30;;;;;;;;;;;;;;;;;;2073075;28;7092;-67
2021/01/08 03:07:32;;;;;;;;;;;;;;;;;;2078931;28;8034;-65
2021/01/08 03:08:34;;;;;;;;;;;;;;;;;;2079083;28;7092;-66
2021/01/08 03:09:36;;;;;;;;;;;;;;;;;;2086673;28;7422;-65
2021/01/08 03:10:38;;;;;;;;;;;;;;;;;;2086695;28;7340;-65
2021/01/08 03:11:40;;;;;;;;;;;;;;;;;;2070126;28;7100;-65
2021/01/08 03:12:50;;;;;;;;;;;;;;;;;;2071450;28;7137;-65
2021/01/08 03:13:53;;;;;;;;;;;;;;;;;;2071005;28;7013;-65
2021/01/08 03:14:56;;;;;;;;;;;;;;;;;;2071678;28;7009;-64
2021/01/08 03:15:58;;;;;;;;;;;;;;;;;;2095087;28;7088;-66
2021/01/08 03:17:00;;;;;;;;;;;;;;;;;;2095042;28;7037;-66
2021/01/08 03:18:02;;;;;;;;;;;;;;;;;;2078509;28;8035;-64
2021/01/08 03:19:04;;;;;;;;;;;;;;;;;;2078984;28;7009;-65
2021/01/08 03:20:06;;;;;;;;;;;;;;;;;;2078636;28;7096;-66
2021/01/08 03:21:08;;;;;;;;;;;;;;;;;;2076895;28;7005;-64
2021/01/08 03:22:10;;;;;;;;;;;;;;;;;;2070854;28;7037;-65
2021/01/08 03:23:12;;;;;;;;;;;;;;;;;;2071000;28;8035;-65
2021/01/08 03:24:14;;;;;;;;;;;;;;;;;;2070652;28;7042;-66
2021/01/08 03:25:16;;;;;;;;;;;;;;;;;;2070917;28;7100;-65
2021/01/08 03:26:18;;;;;;;;;;;;;;;;;;2070783;28;7092;-65
2021/01/08 03:27:20;;;;;;;;;;;;;;;;;;2070917;28;7112;-65
2021/01/08 03:28:22;;;;;;;;;;;;;;;;;;2071252;28;7125;-64
2021/01/08 03:29:24;;;;;;;;;;;;;;;;;;2071636;28;7021;-65
2021/01/08 03:30:26;;;;;;;;;;;;;;;;;;2078803;28;7009;-64
2021/01/08 03:31:28;;;;;;;;;;;;;;;;;;2083771;28;8101;-65
2021/01/08 03:32:30;;;;;;;;;;;;;;;;;;2078878;28;7006;-66
2021/01/08 03:33:32;;;;;;;;;;;;;;;;;;2078651;28;7013;-64
2021/01/08 03:34:34;;;;;;;;;;;;;;;;;;2078816;28;7009;-64
2021/01/08 03:35:36;;;;;;;;;;;;;;;;;;2078663;28;7084;-66
2021/01/08 03:36:37;;;;;;;;;;;;;;;;;;2078706;28;7013;-65
2021/01/08 03:37:40;;;;;;;;;;;;;;;;;;2078836;28;7025;-64
2021/01/08 03:38:42;;;;;;;;;;;;;;;;;;2078793;28;8082;-65
2021/01/08 03:39:44;;;;;;;;;;;;;;;;;;2079285;28;7327;-63
2021/01/08 03:40:46;;;;;;;;;;;;;;;;;;2078994;28;7208;-66
2021/01/08 03:41:48;;;;;;;;;;;;;;;;;;2079302;28;7116;-64
2021/01/08 03:42:50;;;;;;;;;;;;;;;;;;2078541;28;7088;-67
2021/01/08 03:43:52;;;;;;;;;;;;;;;;;;2079263;28;7009;-66
2021/01/08 03:44:54;;;;;;;;;;;;;;;;;;2078605;28;7092;-64
2021/01/08 03:45:58;;;;;;;;;;;;;;;;;;2079339;28;7033;-65
2021/01/08 03:47:00;;;;;;;;;;;;;;;;;;2078916;28;7045;-66
2021/01/08 03:48:02;;;;;;;;;;;;;;;;;;2079031;28;7092;-67
2021/01/08 03:49:05;;;;;;;;;;;;;;;;;;2078297;28;7104;-66
2021/01/08 03:50:08;;;;;;;;;;;;;;;;;;2078875;28;7971;-64
2021/01/08 03:51:10;;;;;;;;;;;;;;;;;;2078797;28;7404;-65
2021/01/08 03:52:11;;;;;;;;;;;;;;;;;;2078731;28;7045;-64
2021/01/08 03:53:13;;;;;;;;;;;;;;;;;;2078539;28;7382;-64
2021/01/08 03:54:15;;;;;;;;;;;;;;;;;;2078748;28;7009;-65
2021/01/08 03:55:17;;;;;;;;;;;;;;;;;;2077261;28;7005;-65
2021/01/08 03:56:19;;;;;;;;;;;;;;;;;;2070916;28;7088;-67
2021/01/08 03:57:21;;;;;;;;;;;;;;;;;;2071418;28;7001;-67
2021/01/08 03:58:23;;;;;;;;;;;;;;;;;;2070591;28;7026;-68
2021/01/08 03:59:25;;;;;;;;;;;;;;;;;;2070108;28;7124;-68
2021/01/08 04:00:27;;;;;;;;;;;;;;;;;;2072283;28;7021;-64
2021/01/08 04:01:29;;;;;;;;;;;;;;;;;;2078745;28;7781;-63
2021/01/08 04:02:31;;;;;;;;;;;;;;;;;;2078441;28;7698;-65
2021/01/08 04:03:33;;;;;;;;;;;;;;;;;;2078356;28;7046;-63
2021/01/08 04:04:35;;;;;;;;;;;;;;;;;;2078837;28;7038;-64
2021/01/08 04:05:37;;;;;;;;;;;;;;;;;;2078292;28;7046;-64
2021/01/08 04:06:39;;;;;;;;;;;;;;;;;;2079194;28;7209;-65
2021/01/08 04:07:41;;;;;;;;;;;;;;;;;;2078882;28;7372;-66
2021/01/08 04:08:44;;;;;;;;;;;;;;;;;;2074189;28;7088;-66
2021/01/08 04:09:46;;;;;;;;;;;;;;;;;;2070753;28;7113;-64
2021/01/08 04:10:48;;;;;;;;;;;;;;;;;;2071335;28;7113;-68
2021/01/08 04:11:50;;;;;;;;;;;;;;;;;;2070778;28;7088;-64
2021/01/08 04:12:51;;;;;;;;;;;;;;;;;;2072584;28;7046;-64
2021/01/08 04:13:54;;;;;;;;;;;;;;;;;;2078992;28;7101;-66
2021/01/08 04:14:56;;;;;;;;;;;;;;;;;;2069240;28;7014;-67
2021/01/08 04:15:58;;;;;;;;;;;;;;;;;;2070635;28;7092;-64
2021/01/08 04:17:00;;;;;;;;;;;;;;;;;;2070237;28;8023;-64
2021/01/08 04:18:02;;;;;;;;;;;;;;;;;;2070209;28;7026;-66
2021/01/08 04:19:05;;;;;;;;;;;;;;;;;;2070277;28;7301;-66
2021/01/08 04:20:07;;;;;;;;;;;;;;;;;;2070257;28;7310;-66
2021/01/08 04:21:08;;;;;;;;;;;;;;;;;;2079839;28;7010;-68
2021/01/08 04:22:10;;;;;;;;;;;;;;;;;;2085365;28;7009;-64
2021/01/08 04:23:12;;;;;;;;;;;;;;;;;;2085823;28;7097;-65
2021/01/08 04:24:14;;;;;;;;;;;;;;;;;;2085585;28;7009;-64
2021/01/08 04:25:16;;;;;;;;;;;;;;;;;;2078712;28;7101;-66
2021/01/08 04:26:18;;;;;;;;;;;;;;;;;;2079414;28;7112;-66
2021/01/08 04:27:20;;;;;;;;;;;;;;;;;;2071064;28;7288;-66
2021/01/08 04:28:22;;;;;;;;;;;;;;;;;;2070750;28;7100;-65
2021/01/08 04:29:24;;;;;;;;;;;;;;;;;;2077215;28;7088;-65
2021/01/08 04:30:26;;;;;;;;;;;;;;;;;;2078598;28;7109;-65
2021/01/08 04:31:28;;;;;;;;;;;;;;;;;;2078044;28;7384;-65
2021/01/08 04:32:30;;;;;;;;;;;;;;;;;;2071330;28;7092;-64
2021/01/08 04:33:32;;;;;;;;;;;;;;;;;;2078038;28;7045;-65
2021/01/08 04:34:34;;;;;;;;;;;;;;;;;;2078382;28;7320;-67
2021/01/08 04:35:36;;;;;;;;;;;;;;;;;;2078017;28;7296;-65
2021/01/08 04:36:37;;;;;;;;;;;;;;;;;;2078362;28;7049;-64
2021/01/08 04:37:40;;;;;;;;;;;;;;;;;;2078419;28;7049;-65
2021/01/08 04:38:42;;;;;;;;;;;;;;;;;;2078362;28;7107;-65
2021/01/08 04:39:46;;;;;;;;;;;;;;;;;;2078512;28;7092;-67
2021/01/08 04:40:49;;;;;;;;;;;;;;;;;;2079271;28;7013;-65
2021/01/08 04:41:51;;;;;;;;;;;;;;;;;;2078027;28;7013;-65
2021/01/08 04:42:53;;;;;;;;;;;;;;;;;;2078381;28;7115;-64
2021/01/08 04:43:55;;;;;;;;;;;;;;;;;;2078851;28;7017;-65
2021/01/08 04:44:57;;;;;;;;;;;;;;;;;;2069601;28;7096;-65
2021/01/08 04:46:20;;;;;;;;;;;;;;;;;;2077762;28;7100;-66
2021/01/08 04:47:22;;;;;;;;;;;;;;;;;;2064605;28;7344;-67
2021/01/08 04:48:25;;;;;;;;;;;;;;;;;;2070334;28;7049;-63
2021/01/08 04:49:27;;;;;;;;;;;;;;;;;;2068922;28;7055;-67
2021/01/08 04:50:30;;;;;;;;;;;;;;;;;;2070576;28;7033;-66
2021/01/08 04:51:35;;;;;;;;;;;;;;;;;;2069991;28;7013;-64
2021/01/08 04:52:37;;;;;;;;;;;;;;;;;;2070652;28;7108;-64
2021/01/08 04:53:40;;;;;;;;;;;;;;;;;;2078684;28;7205;-68
2021/01/08 04:54:42;;;;;;;;;;;;;;;;;;2069939;28;7120;-63
2021/01/08 04:55:45;;;;;;;;;;;;;;;;;;2069309;28;7121;-65
2021/01/08 04:56:49;;;;;;;;;;;;;;;;;;2070444;28;7119;-65
2021/01/08 04:57:53;;;;;;;;;;;;;;;;;;2069956;28;8031;-65
2021/01/08 04:58:55;;;;;;;;;;;;;;;;;;2070242;28;8008;-66
2021/01/08 04:59:58;;;;;;;;;;;;;;;;;;2070272;28;8185;-65
2021/01/08 05:01:01;;;;;;;;;;;;;;;;;;2070276;28;7138;-66
2021/01/08 05:02:03;;;;;;;;;;;;;;;;;;2070674;28;7037;-65
2021/01/08 05:03:05;;;;;;;;;;;;;;;;;;2070784;28;8102;-66
2021/01/08 05:04:07;;;;;;;;;;;;;;;;;;2069834;28;7092;-65
2021/01/08 05:05:12;;;;;;;;;;;;;;;;;;2070203;28;7116;-65
2021/01/08 05:06:14;;;;;;;;;;;;;;;;;;2069382;28;7096;-65
2021/01/08 05:07:16;;;;;;;;;;;;;;;;;;2069993;28;7017;-65
2021/01/08 05:08:18;;;;;;;;;;;;;;;;;;2069886;28;8109;-66
2021/01/08 05:09:20;;;;;;;;;;;;;;;;;;2070024;28;7092;-64
2021/01/08 05:10:22;;;;;;;;;;;;;;;;;;2070053;28;7010;-65
2021/01/08 05:11:23;;;;;;;;;;;;;;;;;;2068984;28;7380;-64
2021/01/08 05:12:38;;;;;;;;;;;;;;;;;;2069347;28;7034;-64
2021/01/08 05:13:41;;;;;;;;;;;;;;;;;;2072967;28;7312;-64
2021/01/08 05:14:44;;;;;;;;;;;;;;;;;;2077904;28;7050;-66
2021/01/08 05:15:52;;;;;;;;;;;;;;;;;;2078174;28;7316;-66
2021/01/08 05:16:55;;;;;;;;;;;;;;;;;;2078122;28;8047;-66
2021/01/08 05:17:58;;;;;;;;;;;;;;;;;;2078197;28;7014;-64
2021/01/08 05:19:01;;;;;;;;;;;;;;;;;;2077947;28;7134;-64
2021/01/08 05:20:03;;;;;;;;;;;;;;;;;;2078383;28;7083;-67
2021/01/08 05:21:05;;;;;;;;;;;;;;;;;;2092229;28;7078;-67
2021/01/08 05:22:07;;;;;;;;;;;;;;;;;;2086205;28;8032;-64
2021/01/08 05:23:11;;;;;;;;;;;;;;;;;;2069868;28;7096;-67
2021/01/08 05:24:13;;;;;;;;;;;;;;;;;;2070305;28;7215;-65
2021/01/08 05:25:15;;;;;;;;;;;;;;;;;;2069926;28;7009;-65
2021/01/08 05:26:18;;;;;;;;;;;;;;;;;;2080990;28;7101;-64
2021/01/08 05:27:27;;;;;;;;;;;;;;;;;;2083158;28;7799;-65
2021/01/08 05:28:29;;;;;;;;;;;;;;;;;;2070451;28;7092;-64
2021/01/08 05:29:31;;;;;;;;;;;;;;;;;;2069851;28;7140;-64
2021/01/08 05:30:33;;;;;;;;;;;;;;;;;;2072875;28;7113;-64
2021/01/08 05:31:35;;;;;;;;;;;;;;;;;;2077987;28;7088;-67
2021/01/08 05:32:38;;;;;;;;;;;;;;;;;;2078446;28;7109;-64
2021/01/08 05:33:40;;;;;;;;;;;;;;;;;;2069140;28;7009;-67
2021/01/08 05:34:43;;;;;;;;;;;;;;;;;;2069347;28;7092;-64
2021/01/08 05:35:47;;;;;;;;;;;;;;;;;;2070205;28;8095;-66
2021/01/08 05:36:49;;;;;;;;;;;;;;;;;;2069304;28;7046;-65
2021/01/08 05:37:54;;;;;;;;;;;;;;;;;;2070268;28;7088;-67
2021/01/08 05:39:00;;;;;;;;;;;;;;;;;;2070276;28;7013;-65
2021/01/08 05:40:05;;;;;;;;;;;;;;;;;;2070273;28;7133;-64
2021/01/08 05:41:09;;;;;;;;;;;;;;;;;;2070068;28;7021;-64
2021/01/08 05:42:11;;;;;;;;;;;;;;;;;;2069439;28;7013;-67
2021/01/08 05:43:13;;;;;;;;;;;;;;;;;;2070320;28;7062;-65
2021/01/08 05:44:16;;;;;;;;;;;;;;;;;;2075866;28;7112;-66
2021/01/08 05:45:24;;;;;;;;;;;;;;;;;;2070392;28;7092;-66
2021/01/08 05:46:31;;;;;;;;;;;;;;;;;;2069794;28;7096;-63
2021/01/08 05:47:33;;;;;;;;;;;;;;;;;;2076730;28;7104;-66
2021/01/08 05:48:38;;;;;;;;;;;;;;;;;;2078021;28;8320;-66
2021/01/08 05:49:40;;;;;;;;;;;;;;;;;;2070581;28;7025;-64
2021/01/08 05:50:44;;;;;;;;;;;;;;;;;;2070484;28;7013;-64
2021/01/08 05:51:46;;;;;;;;;;;;;;;;;;2069485;28;7041;-63
2021/01/08 05:53:06;;;;;;;;;;;;;;;;;;2070123;28;7042;-66
2021/01/08 05:54:08;;;;;;;;;;;;;;;;;;2069671;28;7013;-64
2021/01/08 05:55:13;;;;;;;;;;;;;;;;;;2070469;28;7062;-65
2021/01/08 05:56:16;;;;;;;;;;;;;;;;;;2069971;28;7092;-64
2021/01/08 05:57:19;;;;;;;;;;;;;;;;;;2071641;28;7105;-64
2021/01/08 05:58:23;;;;;;;;;;;;;;;;;;2071491;28;7271;-66
2021/01/08 05:59:26;;;;;;;;;;;;;;;;;;2076879;28;7009;-66
2021/01/08 06:00:27;;;;;;;;;;;;;;;;;;2079934;28;8030;-65
2021/01/08 06:01:30;;;;;;;;;;;;;;;;;;2079613;28;8007;-64
2021/01/08 06:02:33;;;;;;;;;;;;;;;;;;2074632;28;7088;-64
2021/01/08 06:03:37;;;;;;;;;;;;;;;;;;2071848;28;7009;-64
2021/01/08 06:04:40;;;;;;;;;;;;;;;;;;2071554;28;7481;-64
2021/01/08 06:05:42;;;;;;;;;;;;;;;;;;2077383;28;7005;-67
2021/01/08 06:06:44;;;;;;;;;;;;;;;;;;2079582;28;7347;-64
2021/01/08 06:07:48;;;;;;;;;;;;;;;;;;2079656;28;7156;-64
2021/01/08 06:08:51;;;;;;;;;;;;;;;;;;2079442;28;7125;-64
2021/01/08 06:10:01;;;;;;;;;;;;;;;;;;2079521;28;8048;-65
2021/01/08 06:11:05;;;;;;;;;;;;;;;;;;2079568;28;7009;-64
2021/01/08 06:12:11;;;;;;;;;;;;;;;;;;2071363;28;7360;-66
2021/01/08 06:13:14;;;;;;;;;;;;;;;;;;2071358;28;7320;-66
2021/01/08 06:14:17;;;;;;;;;;;;;;;;;;2071882;28;7001;-67
2021/01/08 06:15:19;;;;;;;;;;;;;;;;;;2071612;28;7009;-65
2021/01/08 06:16:22;;;;;;;;;;;;;;;;;;2071395;28;7054;-67
2021/01/08 06:17:24;;;;;;;;;;;;;;;;;;2071532;28;7320;-65
2021/01/08 06:18:27;;;;;;;;;;;;;;;;;;2071749;28;7312;-63
2021/01/08 06:19:30;;;;;;;;;;;;;;;;;;2071642;28;7113;-63
2021/01/08 06:20:32;;;;;;;;;;;;;;;;;;2073131;28;7009;-65
2021/01/08 06:21:34;;;;;;;;;;;;;;;;;;2073790;28;8039;-63
2021/01/08 06:22:38;;;;;;;;;;;;;;;;;;2071579;28;7006;-66
2021/01/08 06:23:44;;;;;;;;;;;;;;;;;;2071385;28;7021;-66
2021/01/08 06:24:53;;;;;;;;;;;;;;;;;;2071470;28;7009;-65
2021/01/08 06:25:58;;;;;;;;;;;;;;;;;;2071255;28;8031;-64
2021/01/08 06:27:01;;;;;;;;;;;;;;;;;;2071148;28;7045;-66
2021/01/08 06:28:04;;;;;;;;;;;;;;;;;;2071766;28;7140;-66
2021/01/08 06:29:20;;;;;;;;;;;;;;;;;;2071682;28;7144;-66
2021/01/08 06:30:26;;;;;;;;;;;;;;;;;;2071755;28;8042;-64
2021/01/08 06:31:36;;;;;;;;;;;;;;;;;;2070722;28;7100;-64
2021/01/08 06:32:47;;;;;;;;;;;;;;;;;;2071418;28;7029;-64
2021/01/08 06:33:52;;;;;;;;;;;;;;;;;;2070970;28;7041;-64
2021/01/08 06:34:54;;;;;;;;;;;;;;;;;;2071526;28;7371;-65
2021/01/08 06:36:10;;;;;;;;;;;;;;;;;;2078832;28;7017;-65
2021/01/08 06:37:18;;;;;;;;;;;;;;;;;;2077617;28;7136;-65
2021/01/08 06:38:28;;;;;;;;;;;;;;;;;;2071326;28;7377;-65
2021/01/08 06:39:38;;;;;;;;;;;;;;;;;;2070060;28;8105;-63
2021/01/08 06:40:41;;;;;;;;;;;;;;;;;;2071519;28;7129;-64
2021/01/08 06:41:51;;;;;;;;;;;;;;;;;;2071379;28;7142;-65
2021/01/08 06:43:02;;;;;;;;;;;;;;;;;;2075797;28;7042;-66
2021/01/08 06:44:05;;;;;;;;;;;;;;;;;;2076216;28;7092;-65
2021/01/08 06:45:11;;;;;;;;;;;;;;;;;;2074033;28;7017;-64
2021/01/08 06:46:25;;;;;;;;;;;;;;;;;;2071715;28;7009;-64
2021/01/08 06:47:28;;;;;;;;;;;;;;;;;;2071136;28;7096;-63
2021/01/08 06:48:31;;;;;;;;;;;;;;;;;;2071296;28;7010;-64
2021/01/08 06:49:36;;;;;;;;;;;;;;;;;;2078970;28;7005;-64
2021/01/08 06:50:41;;;;;;;;;;;;;;;;;;2077887;28;7013;-65
2021/01/08 06:51:43;;;;;;;;;;;;;;;;;;2071057;28;8119;-64
2021/01/08 06:52:49;;;;;;;;;;;;;;;;;;2072812;28;7514;-67
2021/01/08 06:53:54;;;;;;;;;;;;;;;;;;2079489;28;7013;-63
2021/01/08 06:54:56;;;;;;;;;;;;;;;;;;2079369;28;7096;-65
2021/01/08 06:56:02;;;;;;;;;;;;;;;;;;2080238;28;7355;-63
2021/01/08 06:57:11;;;;;;;;;;;;;;;;;;2071466;28;7308;-65
2021/01/08 06:58:18;;;;;;;;;;;;;;;;;;2071572;28;7009;-63
2021/01/08 06:59:21;;;;;;;;;;;;;;;;;;2070329;28;7062;-65
2021/01/08 07:00:28;;;;;;;;;;;;;;;;;;2072005;28;7105;-64
2021/01/08 07:01:42;;;;;;;;;;;;;;;;;;2075981;28;7054;-65
2021/01/08 07:02:45;;;;;;;;;;;;;;;;;;2079382;28;7013;-65
2021/01/08 07:03:50;;;;;;;;;;;;;;;;;;2079687;28;7046;-66
2021/01/08 07:04:54;;;;;;;;;;;;;;;;;;2080063;28;8039;-64
2021/01/08 07:05:56;;;;;;;;;;;;;;;;;;2074453;28;8099;-67
2021/01/08 07:07:01;;;;;;;;;;;;;;;;;;2070986;28;7013;-66
2021/01/08 07:08:07;;;;;;;;;;;;;;;;;;2070736;28;7096;-64
2021/01/08 07:09:09;;;;;;;;;;;;;;;;;;2079110;28;7009;-66
2021/01/08 07:10:14;;;;;;;;;;;;;;;;;;2079970;28;7013;-66
2021/01/08 07:11:25;;;;;;;;;;;;;;;;;;2077234;28;7009;-64
2021/01/08 07:12:27;;;;;;;;;;;;;;;;;;2071309;28;7013;-64
2021/01/08 07:13:30;;;;;;;;;;;;;;;;;;2070636;28;7013;-65
2021/01/08 07:14:34;;;;;;;;;;;;;;;;;;2078111;28;8208;-66
2021/01/08 07:15:36;;;;;;;;;;;;;;;;;;2079239;28;7134;-64
2021/01/08 07:16:42;;;;;;;;;;;;;;;;;;2070653;28;7029;-64
2021/01/08 07:17:50;;;;;;;;;;;;;;;;;;2070925;28;8054;-64
2021/01/08 07:19:02;;;;;;;;;;;;;;;;;;2071234;28;7025;-65
2021/01/08 07:20:05;;;;;;;;;;;;;;;;;;2070672;28;7028;-64
2021/01/08 07:21:21;;;;;;;;;;;;;;;;;;2073043;28;7477;-65